createdAt,value
2017-05-25T00:00:02.481Z,13.69
2017-05-25T00:10:02.198Z,13.56
2017-05-25T00:20:02.883Z,13.49
2017-05-25T00:30:02.369Z,13.36
2017-05-25T00:40:02.843Z,13.17
2017-05-25T00:50:02.316Z,12.97
2017-05-25T01:00:02.804Z,12.8
2017-05-25T01:10:02.971Z,12.64
2017-05-25T01:20:02.235Z,12.51
2017-05-25T01:30:02.688Z,12.43
2017-05-25T01:40:03.104Z,12.23
2017-05-25T01:50:02.226Z,12.12
2017-05-25T02:00:02.735Z,12.01
2017-05-25T02:10:02.410Z,11.89
2017-05-25T02:20:02.812Z,11.75
2017-05-25T02:30:02.335Z,11.64
2017-05-25T02:40:02.832Z,11.52
2017-05-25T02:50:02.980Z,11.42
2017-05-25T03:00:02.415Z,11.36
2017-05-25T03:10:02.954Z,11.17
2017-05-25T03:20:03.146Z,11.17
2017-05-25T03:30:02.638Z,11.27
2017-05-25T03:40:02.917Z,11.39
2017-05-25T03:50:02.856Z,11.52
2017-05-25T04:00:02.388Z,11.63
2017-05-25T04:10:02.529Z,11.62
2017-05-25T04:20:02.984Z,11.6
2017-05-25T04:30:03.087Z,11.56
2017-05-25T04:40:02.231Z,11.53
2017-05-25T04:50:02.194Z,11.48
2017-05-25T05:00:02.739Z,11.43
2017-05-25T05:10:02.811Z,11.38
2017-05-25T05:20:02.754Z,11.32
2017-05-25T05:30:02.856Z,11.27
2017-05-25T05:40:02.990Z,11.31
2017-05-25T05:50:02.451Z,11.48
2017-05-25T06:00:02.536Z,11.69
2017-05-25T06:10:02.630Z,11.74
2017-05-25T06:20:03.020Z,11.78
2017-05-25T06:30:03.098Z,11.88
2017-05-25T06:40:02.202Z,12.2
2017-05-25T06:50:02.696Z,12.41
2017-05-25T07:00:02.808Z,12.53
2017-05-25T07:10:02.937Z,12.5
2017-05-25T07:20:02.373Z,12.51
2017-05-25T07:30:02.489Z,12.59
2017-05-25T07:40:02.584Z,12.58
2017-05-25T07:50:02.394Z,12.72
2017-05-25T08:00:02.493Z,12.69
2017-05-25T08:10:02.604Z,12.71
2017-05-25T08:20:02.929Z,12.72
2017-05-25T08:30:03.029Z,12.88
2017-05-25T08:40:03.140Z,12.88
2017-05-25T08:50:02.217Z,13.04
2017-05-25T09:00:02.334Z,13.22
2017-05-25T09:10:02.418Z,13.36
2017-05-25T09:20:03.042Z,13.26
2017-05-25T09:30:03.142Z,13.47
2017-05-25T09:40:02.237Z,13.61
2017-05-25T09:50:02.355Z,13.92
2017-05-25T10:00:02.417Z,14
2017-05-25T10:10:02.523Z,14.62
2017-05-25T10:20:02.151Z,15.07
2017-05-25T10:30:02.247Z,15.1
2017-05-25T10:40:02.352Z,15.66
2017-05-25T10:50:02.892Z,16.36
2017-05-25T11:00:02.986Z,16.48
2017-05-25T11:10:03.118Z,17.06
2017-05-25T11:20:02.291Z,17.24
2017-05-25T11:30:02.385Z,17.67
2017-05-25T11:40:02.495Z,18.07
2017-05-25T11:50:02.655Z,18.04
2017-05-25T12:00:03.128Z,17.94
2017-05-25T12:10:03.181Z,17.97
2017-05-25T12:20:03.102Z,18.54
2017-05-25T12:30:02.609Z,19.14
2017-05-25T12:40:02.806Z,18.88
2017-05-25T12:50:02.458Z,18.77
2017-05-25T13:00:02.896Z,18.84
2017-05-25T13:10:02.988Z,19.18
2017-05-25T13:20:03.064Z,19.27
2017-05-25T13:30:02.530Z,19.86
2017-05-25T13:40:02.436Z,20.13
2017-05-25T13:50:02.265Z,20.01
2017-05-25T14:00:02.724Z,20.02
2017-05-25T14:10:02.168Z,20.29
2017-05-25T14:20:03.089Z,20.4
2017-05-25T14:30:02.563Z,20.17
2017-05-25T14:40:02.210Z,20.09
2017-05-25T14:50:02.260Z,20.59
2017-05-25T15:00:02.719Z,20.69
2017-05-25T15:10:02.222Z,20.72
2017-05-25T15:20:02.311Z,20.8
2017-05-25T15:30:02.760Z,20.84
2017-05-25T15:40:02.216Z,20.46
2017-05-25T15:50:02.320Z,20.63
2017-05-25T16:00:02.803Z,20.56
2017-05-25T16:10:02.845Z,20.46
2017-05-25T16:20:02.263Z,20.49
2017-05-25T16:30:02.735Z,20.72
2017-05-25T16:40:02.311Z,20.51
2017-05-25T16:50:02.825Z,20.21
2017-05-25T17:00:02.267Z,20.01
2017-05-25T17:10:02.795Z,19.94
2017-05-25T17:20:03.064Z,19.84
2017-05-25T17:30:02.521Z,19.71
2017-05-25T17:40:02.966Z,19.53
2017-05-25T17:50:02.560Z,19.31
2017-05-25T18:00:03.055Z,19.08
2017-05-25T18:10:02.181Z,18.84
2017-05-25T18:20:02.471Z,18.53
2017-05-25T18:30:02.963Z,18.32
2017-05-25T18:40:02.732Z,18.11
2017-05-25T18:50:02.540Z,17.85
2017-05-25T19:00:03.119Z,17.6
2017-05-25T19:10:02.733Z,17.4
2017-05-25T19:20:02.736Z,17.22
2017-05-25T19:30:02.220Z,17.02
2017-05-25T19:40:02.914Z,16.85
2017-05-25T19:50:02.487Z,16.65
2017-05-25T20:00:02.950Z,16.45
2017-05-25T20:10:02.646Z,16.26
2017-05-25T20:20:02.427Z,16.1
2017-05-25T20:30:02.895Z,15.9
2017-05-25T20:40:02.396Z,15.73
2017-05-25T20:50:02.614Z,15.58
2017-05-25T21:00:03.077Z,15.43
2017-05-25T21:10:02.438Z,15.26
2017-05-25T21:20:03.052Z,15.12
2017-05-25T21:30:02.492Z,14.95
2017-05-25T21:40:02.784Z,14.79
2017-05-25T21:50:02.211Z,14.67
2017-05-25T22:00:02.737Z,14.57
2017-05-25T22:10:02.503Z,14.47
2017-05-25T22:20:02.766Z,14.38
2017-05-25T22:30:02.255Z,14.33
2017-05-25T22:40:02.739Z,14.26
2017-05-25T22:50:02.727Z,14.17
2017-05-25T23:00:02.251Z,14.09
2017-05-25T23:10:02.286Z,14
2017-05-25T23:20:02.867Z,13.93
2017-05-25T23:30:02.361Z,13.83
2017-05-25T23:40:02.221Z,13.76
2017-05-25T23:50:02.454Z,13.65
